Time;durP1;ratioP1;P1;durP2;ratioP2;P2;SDS_P1;SDS_P2;PMS_P1;PMS_P2;Temp;Humidity;BMP_temperature;BMP_pressure;BME280_temperature;BME280_humidity;BME280_pressure;Samples;Min_cycle;Max_cycle;Signal;HPM_P1;HPM_P2
2022/12/16 00:01:18;;;;;;;89.22;37.00;;;;;;;-2.43;73.68;98695.17;1685214;85;21060;-41
2022/12/16 00:03:50;;;;;;;82.62;37.70;;;;;;;-2.39;73.62;98698.56;1685221;85;21178;-43
2022/12/16 00:06:17;;;;;;;87.97;37.05;;;;;;;-2.44;73.33;98692.16;1685267;85;21032;-37
2022/12/16 00:08:43;;;;;;;86.23;35.73;;;;;;;-2.52;73.07;98688.84;1685455;85;21550;-36
2022/12/16 00:11:09;;;;;;;79.42;34.67;;;;;;;-2.43;73.63;98693.88;1685137;85;21048;-39
2022/12/16 00:13:37;;;;;;;75.12;33.78;;;;;;;-2.46;73.94;98695.20;1685481;84;20997;-41
2022/12/16 00:16:09;;;;;;;78.17;34.05;;;;;;;-2.41;73.74;98693.87;1685179;85;21552;-41
2022/12/16 00:18:35;;;;;;;72.05;33.48;;;;;;;-2.36;73.79;98694.67;1691487;84;21016;-39
2022/12/16 00:21:01;;;;;;;73.25;33.90;;;;;;;-2.37;73.42;98707.95;1692729;84;21032;-37
2022/12/16 00:23:27;;;;;;;94.17;41.85;;;;;;;-2.37;73.48;98704.09;1697114;84;20997;-35
2022/12/16 00:25:53;;;;;;;100.55;42.50;;;;;;;-2.40;73.42;98703.28;1697150;84;21528;-39
2022/12/16 00:28:22;;;;;;;87.50;37.40;;;;;;;-2.41;73.13;98696.00;1697071;84;21011;-36
2022/12/16 00:30:51;;;;;;;86.90;37.78;;;;;;;-2.45;74.02;98685.33;1697186;84;21469;-34
2022/12/16 00:33:19;;;;;;;91.12;40.05;;;;;;;-2.42;74.08;98682.72;1696721;84;21000;-39
2022/12/16 00:35:46;;;;;;;80.80;36.08;;;;;;;-2.40;73.77;98686.54;1697144;84;21016;-39
2022/12/16 00:38:13;;;;;;;78.00;33.10;;;;;;;-2.37;74.04;98683.94;1697303;84;21004;-37
2022/12/16 00:40:39;;;;;;;68.42;32.88;;;;;;;-2.41;74.50;98689.56;1697249;84;21004;-34
2022/12/16 00:43:05;;;;;;;69.47;31.05;;;;;;;-2.41;74.25;98688.27;1697149;84;21015;-36
2022/12/16 00:45:31;;;;;;;75.52;32.75;;;;;;;-2.39;73.85;98696.83;1697072;84;21064;-42
2022/12/16 00:47:57;;;;;;;71.47;30.17;;;;;;;-2.41;74.40;98692.14;1716104;83;21002;-37
2022/12/16 00:50:24;;;;;;;60.23;29.72;;;;;;;-2.40;74.16;98700.70;1734884;83;20998;-40
2022/12/16 00:52:50;;;;;;;65.03;29.35;;;;;;;-2.45;73.84;98696.91;1735004;83;21054;-36
2022/12/16 00:55:17;;;;;;;60.88;29.60;;;;;;;-2.43;73.81;98689.17;1735158;83;21041;-39
2022/12/16 00:57:43;;;;;;;74.72;33.95;;;;;;;-2.44;73.78;98697.31;1735298;83;21528;-38
2022/12/16 01:00:12;;;;;;;66.15;31.37;;;;;;;-2.43;74.06;98695.17;1735226;83;21050;-37
2022/12/16 01:02:47;;;;;;;64.65;31.15;;;;;;;-2.46;74.32;98695.64;1735203;83;21500;-40
2022/12/16 01:05:17;;;;;;;62.93;29.18;;;;;;;-2.46;74.62;98677.62;1735332;83;21010;-39
2022/12/16 01:07:43;;;;;;;63.33;29.52;;;;;;;-2.48;74.97;98664.76;1735198;83;21057;-36
2022/12/16 01:10:10;;;;;;;62.67;29.85;;;;;;;-2.45;74.69;98663.45;1735133;83;21480;-41
2022/12/16 01:12:38;;;;;;;63.08;29.15;;;;;;;-2.40;74.68;98663.37;1735386;83;21049;-37
2022/12/16 01:15:06;;;;;;;60.17;28.32;;;;;;;-2.43;74.48;98660.41;1735344;83;21002;-39
2022/12/16 01:17:33;;;;;;;53.23;25.82;;;;;;;-2.43;74.55;98655.26;1735342;83;20986;-39
2022/12/16 01:20:00;;;;;;;52.55;25.88;;;;;;;-2.39;74.59;98650.92;1735313;83;20982;-40
2022/12/16 01:22:31;;;;;;;52.75;24.65;;;;;;;-2.35;74.91;98662.46;1735349;83;21033;-41
2022/12/16 01:24:58;;;;;;;54.80;25.40;;;;;;;-2.37;74.48;98655.16;1734630;82;21063;-38
2022/12/16 01:27:23;;;;;;;59.23;25.72;;;;;;;-2.38;74.80;98650.91;1735435;83;21006;-41
2022/12/16 01:29:49;;;;;;;57.40;26.52;;;;;;;-2.46;74.95;98655.29;1735208;83;21504;-42
2022/12/16 01:32:15;;;;;;;55.55;26.57;;;;;;;-2.43;75.29;98662.14;1735143;83;21018;-42
2022/12/16 01:34:42;;;;;;;53.92;25.90;;;;;;;-2.41;75.18;98667.67;1735159;83;21006;-40
2022/12/16 01:37:12;;;;;;;60.50;26.90;;;;;;;-2.46;75.18;98666.87;1735128;83;21002;-41
2022/12/16 01:39:38;;;;;;;55.80;27.62;;;;;;;-2.44;75.03;98659.98;1735201;83;21045;-38
2022/12/16 01:42:11;;;;;;;59.98;27.45;;;;;;;-2.55;75.08;98653.70;1735209;83;21005;-41
2022/12/16 01:44:37;;;;;;;57.23;27.62;;;;;;;-2.50;75.54;98657.49;1733619;83;21538;-38
2022/12/16 01:47:05;;;;;;;58.55;26.55;;;;;;;-2.53;75.42;98660.09;1735060;82;21490;-42
2022/12/16 01:49:52;;;;;;;59.38;29.25;;;;;;;-2.45;75.49;98674.19;1735143;83;21030;-38
2022/12/16 01:52:22;;;;;;;55.08;28.40;;;;;;;-2.38;75.19;98677.09;1735245;83;21008;-41
2022/12/16 01:54:59;;;;;;;56.68;28.65;;;;;;;-2.41;75.40;98675.40;1734668;83;21460;-38
2022/12/16 01:57:31;;;;;;;54.00;27.35;;;;;;;-2.44;75.87;98659.98;1735349;83;21042;-40
2022/12/16 01:59:57;;;;;;;57.20;27.75;;;;;;;-2.38;75.88;98657.34;1734288;83;21345;-41
2022/12/16 02:02:23;;;;;;;57.62;27.22;;;;;;;-2.37;75.58;98654.33;1735138;83;21081;-38
2022/12/16 02:07:33;;;;;;;55.33;27.42;;;;;;;-2.37;75.53;98642.29;1735139;83;21070;-39
2022/12/16 02:09:59;;;;;;;52.38;27.62;;;;;;;-2.36;75.22;98635.44;1735124;83;21114;-41
2022/12/16 02:12:39;;;;;;;55.40;27.87;;;;;;;-2.35;75.64;98639.28;1735105;83;21500;-40
2022/12/16 02:15:19;;;;;;;61.65;27.60;;;;;;;-2.36;75.53;98641.88;1735006;83;21441;-41
2022/12/16 02:18:12;;;;;;;56.50;27.13;;;;;;;-2.32;75.66;98626.79;1734675;83;20978;-40
2022/12/16 02:21:06;;;;;;;60.15;29.45;;;;;;;-2.32;75.34;98621.19;1735139;83;21006;-39
2022/12/16 02:23:59;;;;;;;53.87;26.97;;;;;;;-2.34;75.51;98619.08;1735160;83;21520;-39
2022/12/16 02:27:04;;;;;;;56.10;28.10;;;;;;;-2.32;75.42;98616.05;1735091;83;21013;-39
2022/12/16 02:30:09;;;;;;;52.90;27.73;;;;;;;-2.34;75.49;98604.08;1734456;83;21058;-39
2022/12/16 02:32:46;;;;;;;58.68;27.40;;;;;;;-2.35;75.50;98608.80;1735085;83;21014;-40
2022/12/16 02:35:35;;;;;;;56.25;27.20;;;;;;;-2.34;75.52;98606.66;1733957;83;20971;-39
2022/12/16 02:38:18;;;;;;;56.25;27.80;;;;;;;-2.38;75.33;98603.27;1734451;82;21054;-38
2022/12/16 02:41:06;;;;;;;55.20;26.30;;;;;;;-2.43;75.87;98599.90;1722221;79;21403;-39
2022/12/16 02:43:55;;;;;;;53.75;26.68;;;;;;;-2.35;76.07;98592.93;1659693;85;20991;-34
2022/12/16 02:46:28;;;;;;;61.45;27.58;;;;;;;-2.35;76.07;98592.93;1628251;87;21071;-37
2022/12/16 02:48:56;;;;;;;55.85;27.25;;;;;;;-2.28;75.72;98601.84;1628261;87;21063;-40
2022/12/16 02:51:24;;;;;;;60.92;29.40;;;;;;;-2.27;75.86;98601.83;1653190;87;21507;-41
2022/12/16 02:53:53;;;;;;;54.13;25.77;;;;;;;-2.28;75.56;98601.84;1628235;87;21072;-40
2022/12/16 02:56:39;;;;;;;56.33;27.35;;;;;;;-2.23;75.40;98591.05;1684836;85;21061;-39
2022/12/16 02:59:19;;;;;;;53.75;26.07;;;;;;;-2.28;75.70;98579.51;1648783;85;21030;-39
2022/12/16 03:02:00;;;;;;;55.95;26.77;;;;;;;-2.23;75.39;98579.45;1684864;84;21490;-40
2022/12/16 03:04:37;;;;;;;48.50;25.57;;;;;;;-2.30;75.32;98570.12;1684589;85;21049;-39
2022/12/16 03:07:07;;;;;;;58.87;28.25;;;;;;;-2.24;75.23;98563.58;1683558;84;21045;-40
2022/12/16 03:09:36;;;;;;;56.85;28.38;;;;;;;-2.30;75.40;98561.95;1684055;85;21006;-38
2022/12/16 03:12:08;;;;;;;57.23;29.27;;;;;;;-2.30;75.32;98561.10;1685001;84;21017;-38
2022/12/16 03:14:35;;;;;;;55.45;27.35;;;;;;;-2.39;75.62;98546.19;1683489;85;21456;-41
2022/12/16 03:17:03;;;;;;;58.17;28.57;;;;;;;-2.33;75.38;98542.66;1684873;85;21053;-36
2022/12/16 03:19:30;;;;;;;55.33;27.40;;;;;;;-2.37;75.56;98542.31;1685083;84;21013;-38
2022/12/16 03:22:16;;;;;;;57.83;27.93;;;;;;;-2.35;75.36;98536.28;1684938;85;21032;-39
2022/12/16 03:24:42;;;;;;;62.60;28.55;;;;;;;-2.44;75.50;98528.66;1683260;84;20990;-35
2022/12/16 03:27:47;;;;;;;63.50;30.48;;;;;;;-2.41;75.60;98531.20;1684823;85;20997;-39
2022/12/16 03:30:21;;;;;;;64.82;29.98;;;;;;;-2.38;75.65;98531.17;1684875;84;21013;-40
2022/12/16 03:33:10;;;;;;;64.40;29.48;;;;;;;-2.46;75.71;98526.55;1684804;84;21049;-38
2022/12/16 03:36:02;;;;;;;61.33;29.42;;;;;;;-2.43;75.54;98526.97;1672654;85;21037;-40
2022/12/16 03:38:30;;;;;;;65.30;30.20;;;;;;;-2.48;75.67;98516.72;1684826;84;21013;-41
2022/12/16 03:40:57;;;;;;;59.58;29.40;;;;;;;-2.49;75.67;98514.16;1684969;84;21562;-41
2022/12/16 03:43:24;;;;;;;57.05;28.60;;;;;;;-2.53;75.91;98505.63;1684861;84;21085;-38
2022/12/16 03:45:54;;;;;;;60.37;30.03;;;;;;;-2.47;75.62;98504.28;1685117;84;20993;-41
2022/12/16 03:48:23;;;;;;;66.15;30.43;;;;;;;-2.53;76.24;98500.08;1684956;84;21017;-45
2022/12/16 03:50:49;;;;;;;66.22;30.12;;;;;;;-2.49;76.35;98506.03;1681439;84;21042;-38
2022/12/16 03:53:15;;;;;;;64.72;30.50;;;;;;;-2.45;76.28;98510.25;1679853;84;21045;-39
2022/12/16 03:55:41;;;;;;;69.90;31.80;;;;;;;-2.46;76.18;98515.41;1679738;85;21019;-42
2022/12/16 03:58:07;;;;;;;64.95;31.02;;;;;;;-2.47;76.34;98521.02;1679764;85;20990;-38
2022/12/16 04:00:33;;;;;;;68.90;31.05;;;;;;;-2.49;76.06;98514.16;1679773;85;20971;-42
2022/12/16 04:02:59;;;;;;;63.50;30.40;;;;;;;-2.42;76.19;98510.62;1680009;85;20975;-41
2022/12/16 04:05:24;;;;;;;66.67;30.77;;;;;;;-2.38;75.96;98506.70;1679697;85;21023;-38
2022/12/16 04:07:50;;;;;;;64.30;31.00;;;;;;;-2.40;76.42;98513.61;1679715;85;21536;-40
2022/12/16 04:24:17;;;;;;;71.17;32.05;;;;;;;-2.36;76.04;98504.95;1679728;84;21052;-43
2022/12/16 04:27:23;;;;;;;67.12;32.28;;;;;;;-2.42;76.87;98505.06;1679794;84;21524;-45
2022/12/16 04:29:03;;;;;;;67.55;32.60;;;;;;;-2.39;77.14;98495.98;1676505;85;21023;-40
2022/12/16 04:31:29;;;;;;;72.42;32.40;;;;;;;-2.36;76.78;98483.06;1679873;85;20988;-36
